createdAt,value
2018-07-23T00:02:26.015Z,10.20
2018-07-23T00:04:57.166Z,11.33
2018-07-23T00:07:28.288Z,10.90
2018-07-23T00:09:59.609Z,11.03
2018-07-23T00:12:30.725Z,11.80
2018-07-23T00:15:02.116Z,11.70
2018-07-23T00:17:34.357Z,12.40
2018-07-23T00:20:05.771Z,11.90
2018-07-23T00:22:36.390Z,12.37
2018-07-23T00:25:07.562Z,11.90
2018-07-23T00:27:38.627Z,13.13
2018-07-23T00:30:09.629Z,11.73
2018-07-23T00:32:40.687Z,11.87
2018-07-23T00:35:12.372Z,10.07
2018-07-23T00:37:44.134Z,10.83
2018-07-23T00:40:15.486Z,10.97
2018-07-23T00:42:46.797Z,11.27
2018-07-23T00:45:18.479Z,11.40
2018-07-23T00:47:49.917Z,11.50
2018-07-23T00:50:20.925Z,10.87
2018-07-23T00:52:50.989Z,11.17
2018-07-23T00:55:22.700Z,11.37
2018-07-23T00:57:52.956Z,12.00
2018-07-23T01:00:23.342Z,12.17
2018-07-23T01:02:55.355Z,12.27
2018-07-23T01:05:26.157Z,12.97
2018-07-23T01:07:57.215Z,12.00
2018-07-23T01:10:28.598Z,13.17
2018-07-23T01:12:58.911Z,13.10
2018-07-23T01:15:30.232Z,12.80
2018-07-23T01:18:01.061Z,11.57
2018-07-23T01:20:32.164Z,10.60
2018-07-23T01:23:03.394Z,10.73
2018-07-23T01:25:34.421Z,12.17
2018-07-23T01:28:05.708Z,12.47
2018-07-23T01:30:37.205Z,12.50
2018-07-23T01:33:07.441Z,12.23
2018-07-23T01:35:38.307Z,12.63
2018-07-23T01:39:12.785Z,12.13
2018-07-23T01:41:43.880Z,12.37
2018-07-23T01:44:14.935Z,13.63
2018-07-23T01:46:45.760Z,13.00
2018-07-23T01:49:17.220Z,12.70
2018-07-23T01:51:48.448Z,13.63
2018-07-23T01:54:20.138Z,14.00
2018-07-23T01:56:51.955Z,14.20
2018-07-23T01:59:22.767Z,15.50
2018-07-23T02:01:53.841Z,16.90
2018-07-23T02:04:25.804Z,14.73
2018-07-23T02:06:56.959Z,14.30
2018-07-23T02:09:28.569Z,12.23
2018-07-23T02:11:59.632Z,15.77
2018-07-23T02:14:30.801Z,15.83
2018-07-23T02:17:02.044Z,14.73
2018-07-23T02:19:33.169Z,13.37
2018-07-23T02:22:04.355Z,12.23
2018-07-23T02:24:34.842Z,10.70
2018-07-23T02:27:06.356Z,11.33
2018-07-23T02:29:37.326Z,10.67
2018-07-23T02:32:08.846Z,10.80
2018-07-23T02:34:40.056Z,10.83
2018-07-23T02:37:11.321Z,9.57
2018-07-23T02:39:42.760Z,10.67
2018-07-23T02:42:13.466Z,10.20
2018-07-23T02:44:44.975Z,10.73
2018-07-23T02:47:15.961Z,11.57
2018-07-23T02:49:46.882Z,10.93
2018-07-23T02:52:17.918Z,10.60
2018-07-23T02:54:48.445Z,11.70
2018-07-23T02:57:20.047Z,10.60
2018-07-23T02:59:51.552Z,10.97
2018-07-23T03:02:22.655Z,11.60
2018-07-23T03:04:53.934Z,12.43
2018-07-23T03:07:25.349Z,14.13
2018-07-23T03:09:56.864Z,11.37
2018-07-23T03:12:27.780Z,10.63
2018-07-23T03:14:59.073Z,9.90
2018-07-23T03:17:30.373Z,9.50
2018-07-23T03:20:01.501Z,9.07
2018-07-23T03:22:32.645Z,7.83
2018-07-23T03:25:04.153Z,8.10
2018-07-23T03:27:35.047Z,8.13
2018-07-23T03:30:06.010Z,7.43
2018-07-23T03:32:37.285Z,7.17
2018-07-23T03:35:08.750Z,6.77
2018-07-23T03:37:40.130Z,5.73
2018-07-23T03:40:10.997Z,5.63
2018-07-23T03:42:42.328Z,5.13
2018-07-23T03:45:13.273Z,5.47
2018-07-23T03:47:44.696Z,5.23
2018-07-23T03:50:16.080Z,5.10
2018-07-23T03:52:47.866Z,6.40
2018-07-23T03:55:20.392Z,5.47
2018-07-23T03:57:52.155Z,5.30
2018-07-23T04:00:23.463Z,5.83
2018-07-23T04:02:54.080Z,5.93
2018-07-23T04:05:25.012Z,6.20
2018-07-23T04:07:55.874Z,6.37
2018-07-23T04:10:27.534Z,6.43
2018-07-23T04:12:59.295Z,7.00
2018-07-23T04:15:31.325Z,6.60
2018-07-23T04:18:03.904Z,7.00
2018-07-23T04:20:36.256Z,7.47
2018-07-23T04:23:07.632Z,7.50
2018-07-23T04:25:38.746Z,5.77
2018-07-23T04:28:09.905Z,6.23
2018-07-23T04:30:41.247Z,6.60
2018-07-23T04:33:12.041Z,5.97
2018-07-23T04:35:42.995Z,6.40
2018-07-23T04:38:14.082Z,6.37
2018-07-23T04:40:45.189Z,6.40
2018-07-23T04:43:16.968Z,6.47
2018-07-23T04:45:47.659Z,8.33
2018-07-23T04:48:18.739Z,6.30
2018-07-23T04:50:49.902Z,6.27
2018-07-23T04:53:20.982Z,5.93
2018-07-23T04:55:52.850Z,6.50
2018-07-23T04:58:24.124Z,6.60
2018-07-23T05:00:55.580Z,6.87
2018-07-23T05:03:26.716Z,7.13
2018-07-23T05:05:58.364Z,6.53
2018-07-23T05:08:29.662Z,6.90
2018-07-23T05:11:01.347Z,6.80
2018-07-23T05:13:32.652Z,7.47
2018-07-23T05:16:04.010Z,8.00
2018-07-23T05:18:35.388Z,8.50
2018-07-23T05:21:06.960Z,9.30
2018-07-23T05:23:38.358Z,9.20
2018-07-23T05:26:09.888Z,9.30
2018-07-23T05:28:41.135Z,10.10
2018-07-23T05:31:12.524Z,10.63
2018-07-23T05:33:43.514Z,11.17
2018-07-23T05:36:14.671Z,11.43
2018-07-23T05:38:46.265Z,13.43
2018-07-23T05:41:17.536Z,13.87
2018-07-23T05:43:48.753Z,12.17
2018-07-23T05:46:19.753Z,11.80
2018-07-23T05:48:50.046Z,12.60
2018-07-23T05:51:21.339Z,9.93
2018-07-23T05:53:53.220Z,10.93
2018-07-23T05:56:24.553Z,9.83
2018-07-23T05:58:56.608Z,9.83
2018-07-23T06:01:28.032Z,9.50
2018-07-23T06:03:59.226Z,8.20
2018-07-23T06:06:29.864Z,5.83
2018-07-23T06:09:01.451Z,7.57
2018-07-23T06:11:33.145Z,8.50
2018-07-23T06:14:04.135Z,7.50
2018-07-23T06:16:35.275Z,7.83
2018-07-23T06:19:06.586Z,8.27
2018-07-23T06:21:38.218Z,6.67
2018-07-23T06:24:09.820Z,6.60
2018-07-23T06:26:41.121Z,6.50
2018-07-23T06:29:12.473Z,6.47
2018-07-23T06:31:43.445Z,7.03
2018-07-23T06:34:14.757Z,8.50
2018-07-23T06:36:46.163Z,9.40
2018-07-23T06:39:17.489Z,7.93
2018-07-23T06:41:48.778Z,7.60
2018-07-23T06:44:20.323Z,7.77
2018-07-23T06:46:51.661Z,7.77
2018-07-23T06:49:22.679Z,8.80
2018-07-23T06:51:53.679Z,8.00
2018-07-23T06:54:25.010Z,9.57
2018-07-23T06:56:56.490Z,9.33
2018-07-23T06:59:27.681Z,8.00
2018-07-23T07:01:58.899Z,9.63
2018-07-23T07:04:30.286Z,8.57
2018-07-23T07:07:01.508Z,8.30
2018-07-23T07:09:32.502Z,8.53
2018-07-23T07:12:03.032Z,8.13
2018-07-23T07:14:34.604Z,8.27
2018-07-23T07:17:06.340Z,9.37
2018-07-23T07:19:37.552Z,8.40
2018-07-23T07:22:09.201Z,9.03
2018-07-23T07:24:40.005Z,8.80
2018-07-23T07:27:11.508Z,8.90
2018-07-23T07:29:42.667Z,10.07
2018-07-23T07:32:13.753Z,9.47
2018-07-23T07:34:44.986Z,10.03
2018-07-23T07:37:16.333Z,10.47
2018-07-23T07:39:47.027Z,11.10
2018-07-23T07:42:18.612Z,10.17
2018-07-23T07:44:49.354Z,10.40
2018-07-23T07:47:20.652Z,10.07
2018-07-23T07:49:52.119Z,10.77
2018-07-23T07:52:22.843Z,11.00
2018-07-23T07:54:53.436Z,10.77
2018-07-23T07:57:24.279Z,10.40
2018-07-23T07:59:55.529Z,10.00
2018-07-23T08:02:26.951Z,9.80
2018-07-23T08:04:58.258Z,10.80
2018-07-23T08:07:29.405Z,9.83
2018-07-23T08:10:00.564Z,23.60
2018-07-23T08:12:31.485Z,10.00
2018-07-23T08:15:02.937Z,9.90
2018-07-23T08:17:34.748Z,9.63
2018-07-23T08:20:06.290Z,9.63
2018-07-23T08:22:37.438Z,10.17
2018-07-23T08:25:08.906Z,9.60
2018-07-23T08:27:40.221Z,9.43
2018-07-23T08:30:11.600Z,9.40
2018-07-23T08:32:42.731Z,9.80
2018-07-23T08:35:13.883Z,9.40
2018-07-23T08:37:45.537Z,9.17
2018-07-23T08:40:16.887Z,9.57
2018-07-23T08:42:48.050Z,8.87
2018-07-23T08:45:20.068Z,9.37
2018-07-23T08:47:50.595Z,8.07
2018-07-23T08:50:22.225Z,8.17
2018-07-23T08:52:53.420Z,8.47
2018-07-23T08:55:24.355Z,8.47
2018-07-23T08:57:55.497Z,8.10
2018-07-23T09:00:25.824Z,8.57
2018-07-23T09:02:57.507Z,8.43
2018-07-23T09:05:28.675Z,8.33
2018-07-23T09:07:59.314Z,8.70
2018-07-23T09:10:31.074Z,9.17
2018-07-23T09:13:02.270Z,8.43
2018-07-23T09:15:34.136Z,7.83
2018-07-23T09:18:05.438Z,7.83
2018-07-23T09:20:36.873Z,7.60
2018-07-23T09:23:08.242Z,8.33
2018-07-23T09:25:44.519Z,7.80
2018-07-23T09:28:16.560Z,7.67
2018-07-23T09:30:52.829Z,7.60
2018-07-23T09:33:25.334Z,8.33
2018-07-23T09:35:56.591Z,7.28
2018-07-23T09:38:27.555Z,8.80
2018-07-23T09:40:58.563Z,7.20
2018-07-23T09:43:29.887Z,7.97
2018-07-23T09:46:01.093Z,6.90
2018-07-23T09:48:32.567Z,8.70
2018-07-23T09:51:04.987Z,6.47
2018-07-23T09:53:36.139Z,7.22
2018-07-23T09:56:08.104Z,8.63
2018-07-23T09:58:39.248Z,7.70
2018-07-23T10:01:12.060Z,6.80
2018-07-23T10:03:43.211Z,5.60
2018-07-23T10:06:14.181Z,6.05
2018-07-23T10:08:45.309Z,7.17
2018-07-23T10:11:16.455Z,6.30
2018-07-23T10:13:47.275Z,6.65
2018-07-23T10:16:19.375Z,6.58
2018-07-23T10:18:49.837Z,6.67
2018-07-23T10:21:21.370Z,7.45
2018-07-23T10:23:52.913Z,7.03
2018-07-23T10:26:25.053Z,6.35
2018-07-23T10:28:56.445Z,7.33
2018-07-23T10:31:27.695Z,8.05
2018-07-23T10:33:59.190Z,6.65
2018-07-23T10:36:30.446Z,6.60
2018-07-23T10:39:02.116Z,6.58
2018-07-23T10:41:33.501Z,6.25
2018-07-23T10:44:05.453Z,6.67
2018-07-23T10:46:36.540Z,5.60
2018-07-23T10:49:07.973Z,6.15
2018-07-23T10:51:38.978Z,6.53
2018-07-23T10:54:10.574Z,5.72
2018-07-23T10:56:41.753Z,6.17
2018-07-23T10:59:12.571Z,5.95
2018-07-23T11:01:44.094Z,6.03
2018-07-23T11:04:15.133Z,6.28
2018-07-23T11:06:46.485Z,5.65
2018-07-23T11:09:17.848Z,6.08
2018-07-23T11:11:48.572Z,5.83
2018-07-23T11:14:19.504Z,5.08
2018-07-23T11:16:50.632Z,5.90
2018-07-23T11:19:21.991Z,5.55
2018-07-23T11:21:53.329Z,5.50
2018-07-23T11:24:25.206Z,5.80
2018-07-23T11:26:56.477Z,5.35
2018-07-23T11:29:28.179Z,5.50
2018-07-23T11:31:59.065Z,5.70
2018-07-23T11:34:30.724Z,5.87
2018-07-23T11:37:02.045Z,5.75
2018-07-23T11:39:33.405Z,4.78
2018-07-23T11:42:04.440Z,4.10
2018-07-23T11:44:35.111Z,4.50
2018-07-23T11:47:06.311Z,4.65
2018-07-23T11:49:37.822Z,4.67
2018-07-23T11:52:14.360Z,5.27
2018-07-23T11:54:40.917Z,4.87
2018-07-23T11:57:12.750Z,5.17
2018-07-23T11:59:44.030Z,4.90
2018-07-23T12:02:16.151Z,5.03
2018-07-23T12:04:48.106Z,4.90
2018-07-23T12:07:19.389Z,5.30
2018-07-23T12:09:50.476Z,5.40
2018-07-23T12:12:22.211Z,5.83
2018-07-23T12:14:53.701Z,6.00
2018-07-23T12:17:25.347Z,6.40
2018-07-23T12:19:56.557Z,6.80
2018-07-23T12:22:27.821Z,6.40
2018-07-23T12:24:58.711Z,6.10
2018-07-23T12:27:30.020Z,19.00
2018-07-23T12:30:00.969Z,7.90
2018-07-23T12:32:32.826Z,7.03
2018-07-23T12:35:04.122Z,6.60
2018-07-23T12:37:35.448Z,7.57
2018-07-23T12:40:06.712Z,7.80
2018-07-23T12:42:37.921Z,6.20
2018-07-23T12:45:09.512Z,5.93
2018-07-23T12:47:40.546Z,5.73
2018-07-23T12:50:11.288Z,5.30
2018-07-23T12:52:42.814Z,6.20
2018-07-23T12:55:14.119Z,5.97
2018-07-23T12:57:45.396Z,5.92
2018-07-23T13:00:16.668Z,5.75
2018-07-23T13:02:47.769Z,5.70
2018-07-23T13:05:19.611Z,5.63
2018-07-23T13:07:50.257Z,5.77
2018-07-23T13:10:21.328Z,5.53
2018-07-23T13:12:51.627Z,5.63
2018-07-23T13:15:23.594Z,5.50
2018-07-23T13:17:55.180Z,5.50
2018-07-23T13:20:27.184Z,6.00
2018-07-23T13:22:59.163Z,5.30
2018-07-23T13:25:30.958Z,5.20
2018-07-23T13:28:03.053Z,5.30
2018-07-23T13:30:35.120Z,5.87
2018-07-23T13:33:06.526Z,5.43
2018-07-23T13:35:37.854Z,6.00
2018-07-23T13:38:08.878Z,5.47
2018-07-23T13:40:40.777Z,5.50
2018-07-23T13:45:46.558Z,5.77
2018-07-23T13:48:18.702Z,6.13
2018-07-23T14:02:46.080Z,9.67
2018-07-23T14:05:17.473Z,9.97
2018-07-23T14:07:48.902Z,8.70
2018-07-23T14:10:20.413Z,8.03
2018-07-23T14:12:51.738Z,7.73
2018-07-23T14:15:22.814Z,6.70
2018-07-23T14:17:54.855Z,6.53
2018-07-23T14:20:26.257Z,5.53
2018-07-23T14:22:57.162Z,5.67
2018-07-23T14:25:28.583Z,6.73
2018-07-23T14:27:59.958Z,8.53
2018-07-23T14:30:31.934Z,7.40
2018-07-23T14:33:03.288Z,6.27
2018-07-23T14:35:34.539Z,7.53
2018-07-23T14:38:06.176Z,8.40
2018-07-23T14:40:37.837Z,8.00
2018-07-23T14:43:09.173Z,6.60
2018-07-23T14:45:40.213Z,6.77
2018-07-23T14:48:11.111Z,7.40
2018-07-23T14:50:42.496Z,6.90
2018-07-23T14:53:13.568Z,7.17
2018-07-23T14:55:45.574Z,8.43
2018-07-23T14:58:17.230Z,8.20
2018-07-23T15:00:48.704Z,8.83
2018-07-23T15:03:19.851Z,8.63
2018-07-23T15:05:51.196Z,7.57
2018-07-23T15:08:22.441Z,8.73
2018-07-23T15:10:53.306Z,7.63
2018-07-23T15:13:24.585Z,8.73
2018-07-23T15:15:55.371Z,8.37
2018-07-23T15:18:26.617Z,8.23
2018-07-23T15:20:57.762Z,7.87
2018-07-23T15:23:29.171Z,8.00
2018-07-23T15:26:00.551Z,7.93
2018-07-23T15:28:31.689Z,8.87
2018-07-23T15:31:02.776Z,8.73
2018-07-23T15:33:33.999Z,8.63
2018-07-23T15:36:05.164Z,8.37
2018-07-23T15:38:36.131Z,8.40
2018-07-23T15:41:07.388Z,10.00
2018-07-23T15:43:38.269Z,10.10
2018-07-23T15:46:09.858Z,10.33
2018-07-23T15:48:41.419Z,10.53
2018-07-23T15:51:12.882Z,10.00
2018-07-23T15:53:44.140Z,10.17
2018-07-23T15:56:15.552Z,10.03
2018-07-23T15:58:47.101Z,8.57
2018-07-23T16:01:17.993Z,9.33
2018-07-23T16:03:49.469Z,9.23
2018-07-23T16:06:20.481Z,7.73
2018-07-23T16:08:52.211Z,8.23
2018-07-23T16:11:23.665Z,7.90
2018-07-23T16:13:55.247Z,7.60
2018-07-23T16:16:26.494Z,7.60
2018-07-23T16:18:56.935Z,7.83
2018-07-23T16:21:28.594Z,8.07
2018-07-23T16:23:59.761Z,7.63
2018-07-23T16:26:31.343Z,7.70
2018-07-23T16:29:02.458Z,7.83
2018-07-23T16:31:33.719Z,7.23
2018-07-23T16:34:05.122Z,7.83
2018-07-23T16:36:36.440Z,8.03
2018-07-23T16:39:10.814Z,7.57
2018-07-23T16:41:42.652Z,7.77
2018-07-23T16:44:14.077Z,7.17
2018-07-23T16:46:45.748Z,7.47
2018-07-23T16:49:16.863Z,7.37
2018-07-23T16:51:46.871Z,7.73
2018-07-23T16:54:17.300Z,7.70
2018-07-23T16:56:47.496Z,7.73
2018-07-23T16:59:17.762Z,7.60
2018-07-23T17:01:47.973Z,7.00
2018-07-23T17:04:18.403Z,7.13
2018-07-23T17:06:48.713Z,7.30
2018-07-23T17:09:19.787Z,7.40
2018-07-23T17:11:50.784Z,6.30
2018-07-23T17:14:22.889Z,5.97
2018-07-23T17:16:54.317Z,6.60
2018-07-23T17:19:25.610Z,6.20
2018-07-23T17:21:56.222Z,6.27
2018-07-23T17:24:26.894Z,6.03
2018-07-23T17:26:57.800Z,5.53
2018-07-23T17:29:28.940Z,5.93
2018-07-23T17:32:00.265Z,5.63
2018-07-23T17:34:31.478Z,5.20
2018-07-23T17:37:01.915Z,5.13
2018-07-23T17:39:32.721Z,5.00
2018-07-23T17:42:03.704Z,5.13
2018-07-23T17:44:34.671Z,9.23
2018-07-23T17:47:05.864Z,8.70
2018-07-23T17:49:37.046Z,5.23
2018-07-23T17:52:08.601Z,5.20
2018-07-23T17:54:40.226Z,5.20
2018-07-23T17:57:11.291Z,4.47
2018-07-23T17:59:42.274Z,4.47
2018-07-23T18:02:13.640Z,4.30
2018-07-23T18:04:44.769Z,4.50
2018-07-23T18:07:15.621Z,4.60
2018-07-23T18:09:46.865Z,4.63
2018-07-23T18:12:17.899Z,4.90
2018-07-23T18:14:49.575Z,4.47
2018-07-23T18:17:20.808Z,4.50
2018-07-23T18:19:52.683Z,4.30
2018-07-23T18:22:24.142Z,4.33
2018-07-23T18:24:56.298Z,5.13
2018-07-23T18:27:26.952Z,5.10
2018-07-23T18:29:58.592Z,5.10
2018-07-23T18:32:30.175Z,5.97
2018-07-23T18:35:01.346Z,5.30
2018-07-23T18:37:32.607Z,5.27
2018-07-23T18:40:04.451Z,5.57
2018-07-23T18:42:36.224Z,5.10
2018-07-23T18:45:08.176Z,5.63
2018-07-23T18:47:39.043Z,5.93
2018-07-23T18:50:10.521Z,5.87
2018-07-23T18:52:41.974Z,6.30
2018-07-23T18:55:13.392Z,6.17
2018-07-23T18:57:44.654Z,6.30
2018-07-23T19:00:15.709Z,6.57
2018-07-23T19:02:46.881Z,6.77
2018-07-23T19:05:18.728Z,6.73
2018-07-23T19:07:49.552Z,6.43
2018-07-23T19:10:21.012Z,6.27
2018-07-23T19:12:51.865Z,7.00
2018-07-23T19:15:23.416Z,6.73
2018-07-23T19:17:55.367Z,6.83
2018-07-23T19:20:28.002Z,7.03
2018-07-23T19:22:59.647Z,6.53
2018-07-23T19:25:30.991Z,6.60
2018-07-23T19:28:02.197Z,6.90
2018-07-23T19:30:33.772Z,6.93
2018-07-23T19:33:04.765Z,6.60
2018-07-23T19:35:36.262Z,7.33
2018-07-23T19:38:08.212Z,7.40
2018-07-23T19:40:39.880Z,7.13
2018-07-23T19:43:10.789Z,6.90
2018-07-23T19:45:42.484Z,7.00
2018-07-23T19:48:13.955Z,8.50
2018-07-23T19:50:45.507Z,7.63
2018-07-23T19:53:16.709Z,8.60
2018-07-23T19:55:48.355Z,8.10
2018-07-23T19:58:19.365Z,8.10
2018-07-23T20:00:50.412Z,8.57
2018-07-23T20:03:21.688Z,8.13
2018-07-23T20:05:53.332Z,7.77
2018-07-23T20:08:24.373Z,7.43
2018-07-23T20:10:55.529Z,7.93
2018-07-23T20:13:28.113Z,7.77
2018-07-23T20:15:58.850Z,7.43
2018-07-23T20:18:30.282Z,7.43
2018-07-23T20:21:00.909Z,7.97
2018-07-23T20:23:32.294Z,7.73
2018-07-23T20:26:03.235Z,7.20
2018-07-23T20:28:34.802Z,7.73
2018-07-23T20:31:06.556Z,7.50
2018-07-23T20:33:38.039Z,7.93
2018-07-23T20:36:09.392Z,9.30
2018-07-23T20:38:40.719Z,10.20
2018-07-23T20:41:12.143Z,9.80
2018-07-23T20:43:43.370Z,9.60
2018-07-23T20:46:14.834Z,8.83
2018-07-23T20:48:45.710Z,8.83
2018-07-23T20:51:16.746Z,9.37
2018-07-23T20:53:48.121Z,9.77
2018-07-23T20:56:19.539Z,9.87
2018-07-23T20:58:50.943Z,9.60
2018-07-23T21:01:22.329Z,9.87
2018-07-23T21:03:53.402Z,10.50
2018-07-23T21:06:24.567Z,10.97
2018-07-23T21:08:56.097Z,11.20
2018-07-23T21:11:27.900Z,11.17
2018-07-23T21:13:58.194Z,10.77
2018-07-23T21:16:29.541Z,10.00
2018-07-23T21:19:00.731Z,9.70
2018-07-23T21:21:31.975Z,10.40
2018-07-23T21:24:03.491Z,10.73
2018-07-23T21:26:34.785Z,10.10
2018-07-23T21:29:06.110Z,9.70
2018-07-23T21:31:37.460Z,10.53
2018-07-23T21:34:08.644Z,9.93
2018-07-23T21:36:39.026Z,9.73
2018-07-23T21:39:11.034Z,9.87
2018-07-23T21:41:42.521Z,9.90
2018-07-23T21:44:13.432Z,10.13
2018-07-23T21:46:44.619Z,10.23
2018-07-23T21:49:16.061Z,10.53
2018-07-23T21:51:47.589Z,10.47
2018-07-23T21:54:18.787Z,10.77
2018-07-23T21:56:50.265Z,11.27
2018-07-23T21:59:22.505Z,10.17
2018-07-23T22:01:54.353Z,9.37
2018-07-23T22:04:25.879Z,10.33
2018-07-23T22:06:57.221Z,9.63
2018-07-23T22:09:28.668Z,9.00
2018-07-23T22:11:59.694Z,9.23
2018-07-23T22:14:30.960Z,9.53
2018-07-23T22:17:02.619Z,10.30
2018-07-23T22:19:33.723Z,10.20
2018-07-23T22:22:05.252Z,9.07
2018-07-23T22:24:36.265Z,9.77
2018-07-23T22:27:07.774Z,10.40
2018-07-23T22:29:39.235Z,10.70
2018-07-23T22:32:09.933Z,10.70
2018-07-23T22:34:41.896Z,10.80
2018-07-23T22:37:13.357Z,10.70
2018-07-23T22:39:45.073Z,10.20
2018-07-23T22:42:16.681Z,11.87
2018-07-23T22:44:50.698Z,11.00
2018-07-23T22:47:22.335Z,11.63
2018-07-23T22:49:53.226Z,11.03
2018-07-23T22:52:24.490Z,10.90
2018-07-23T22:54:56.083Z,10.37
2018-07-23T22:57:27.225Z,12.10
2018-07-23T22:59:58.510Z,11.27
2018-07-23T23:02:30.460Z,11.37
2018-07-23T23:05:02.034Z,12.63
2018-07-23T23:07:33.259Z,11.67
2018-07-23T23:10:04.504Z,11.27
2018-07-23T23:12:35.908Z,12.30
2018-07-23T23:15:07.277Z,12.90
2018-07-23T23:17:38.445Z,11.83
2018-07-23T23:20:09.819Z,11.10
2018-07-23T23:22:40.785Z,11.37
2018-07-23T23:25:12.242Z,10.07
2018-07-23T23:27:43.130Z,10.53
2018-07-23T23:30:14.358Z,9.90
2018-07-23T23:32:46.135Z,10.80
2018-07-23T23:35:17.272Z,11.00
2018-07-23T23:37:48.390Z,9.97
2018-07-23T23:40:19.707Z,9.83
2018-07-23T23:42:51.015Z,10.67
2018-07-23T23:45:22.401Z,9.97
2018-07-23T23:47:53.418Z,10.00
2018-07-23T23:50:24.791Z,9.57
2018-07-23T23:52:56.278Z,9.63
2018-07-23T23:55:26.860Z,10.30
2018-07-23T23:57:57.345Z,10.50
